Share

Toyama Airport, Japan

Toyama (RJNT) Elev 89 ft | 36.65 °N, 137.19 °E | Change Station

Current weather conditions updated 15 minutes ago

Partly Cloudy
Partly Cloudy
70 °F
Feels Like 70 °F
N
12
Wind Variable Wind from NNE
Sunrise 5:15 AM
Sunset 6:26 PM
Moon Waning Gibbous

Today is forecast to be Warmer than yesterday. Rain developing late tonight.

Pressure 29.92 in
Visibility 3.7 miles
Clouds Few 4000 ft
Dew Point 50 °F
Humidity 49%
Rainfall 0.00 in
Snow Depth Not available.
UV 9 out of 16
Pollen Not available.
Air Quality Not available.
Flu Activity Not available.
SPECI RJNT 170234Z 02010KT 340V040 6000 FEW040 SCT/// 21/10 Q1013 RMK 1CU040 A2993

More Conditions Fewer Conditions

Pressure 29.92 in
Visibility 3.7 miles
Clouds Few 4000 ft
Dew Point 50 °F
Humidity 49%
Rainfall 0.00 in
Snow Depth Not available.
UV 9 out of 16
Pollen Not available.
Air Quality Not available.
Flu Activity Not available.
SPECI RJNT 170234Z 02010KT 340V040 6000 FEW040 SCT/// 21/10 Q1013 RMK 1CU040 A2993

More Conditions Fewer Conditions

10-Day Forecast

Almanac

Astronomy

Apr. 17, 2014 Rise Set
Actual Time 5:15 AM JST 6:26 PM JST
Civil Twilight 4:48 AM JST 6:53 PM JST
Nautical Twilight 4:17 AM JST 7:25 PM JST
Astronomical Twilight 3:43 AM JST 7:58 PM JST
Moon 8:31 PM JST 6:20 AM JST
Length of Visible Light 14h 04m
Length of Day
13h 11m
Tomorrow will be 2m 12s longer.
Waning Gibbous, 96% of the Moon is Illuminated
Apr 16
Waning Gibbous
Apr 22
Last Quarter
Apr 29
New
May 6
First Quarter
May 14
Full

Yesterday's Extremes

Country Highs Country Lows

Community

  • symphony in blue....
    symphony in blue....
  • Dawn Surprise
    Dawn Surprise
  • Yucca delight
    Yucca delight
  • Sunset inside of the Ocean
    Sunset inside of the Ocean
  • Lunar eclipse 15 April 2014
    Lunar eclipse 15 April 2014

WunderPhotos

Upload Photos

1,701,825 photos uploaded!

WunderBlogs® & News

Nearby

Snow Depth

Not available.

Coastal Water Temperatures

Place Temperature
No Stations Reporting

Earthquake Activity

City Distance Mag. Time & Date
No recent earthquake activity has been reported nearby.
Minimum magnitude displayed is 2.5.

Nearby Weather Stations

Station Location Temp. Heat Index Dew Point Humidity Wind Precip. Elev Updated Type
JR9MAR-WX, TONAMI 73.0 °F 77 °F 50 °F 44% SSW  at  0.0 mph 0.00 in / hr 318 ft 8:44 AM JST Rapid Fire
JR9MAR-WX, TONAMI 74.9 °F 78 °F 56 °F 52% SSW  at  1.2 mph 0.00 in / hr 318 ft 11:49 AM JST Rapid Fire

Show More Stations Show Fewer Stations

What do you think?

We're not finished. Please let us know what you like, what you don't like, and what you are still missing.